Terminal Aerodrome Forecast
Issued by NWS

Home | Current Version | Previous Version | Text Only | Print | Product List | Glossary On
Versions: 1 2 3 4 5 6 7 8 9 10 11 12 13 14 15 16 17 18 19 20 21 22 23 24 25 26
000
FTUS43 KIND 300520
TAFBMG
TAF
KBMG 300520Z 3006/3106 11012KT P6SM OVC070
     FM300800 12011KT P6SM VCTS OVC060CB
     FM301200 13010KT P6SM SHRA OVC050
      TEMPO 3012/3015 4SM TS OVC025CB
     FM301600 18013KT P6SM SHRA VCTS OVC050CB
     FM301800 19013KT P6SM -SHRA VCTS OVC060CB
     FM310000 17007KT P6SM SHRA OVC070
      AMD LTD TO CLD VIS AND WIND TIL 301300=

USA.gov is the U.S. government's official web portal to all federal, state and local government web resources and services.